Time;durP1;ratioP1;P1;durP2;ratioP2;P2;SDS_P1;SDS_P2;PMS_P1;PMS_P2;Temp;Humidity;BMP_temperature;BMP_pressure;BME280_temperature;BME280_humidity;BME280_pressure;Samples;Min_cycle;Max_cycle;Signal;HPM_P1;HPM_P2
2023/08/03 00:00:01;;;;;;;13.90;4.40;;;;;;;19.78;65.77;101474.31;5074417;28;20040;-45
2023/08/03 00:02:28;;;;;;;15.20;4.72;;;;;;;19.76;65.28;101483.75;5073291;28;20433;-47
2023/08/03 00:04:54;;;;;;;10.52;4.38;;;;;;;19.86;65.50;101488.50;5074315;28;20078;-44
2023/08/03 00:07:21;;;;;;;11.88;4.75;;;;;;;19.78;65.48;101470.78;5074251;28;20025;-45
2023/08/03 00:09:47;;;;;;;11.93;4.80;;;;;;;19.72;65.86;101472.59;5069168;28;20475;-47
2023/08/03 00:12:17;;;;;;;9.95;4.35;;;;;;;19.71;65.35;101470.97;5059711;28;20032;-45
2023/08/03 00:14:44;;;;;;;14.85;4.63;;;;;;;19.64;65.30;101475.72;5074151;28;20070;-45
2023/08/03 00:17:10;;;;;;;12.35;5.22;;;;;;;19.33;67.05;101469.03;5074171;28;20021;-48
2023/08/03 00:19:36;;;;;;;17.00;5.68;;;;;;;19.27;66.77;101472.75;5072556;28;20113;-46
2023/08/03 00:22:02;;;;;;;13.70;4.63;;;;;;;18.68;69.78;101481.28;5071911;28;20498;-41
2023/08/03 00:24:29;;;;;;;18.42;5.03;;;;;;;18.88;70.81;101477.28;5072943;28;20032;-47
2023/08/03 00:26:56;;;;;;;15.32;5.38;;;;;;;18.82;69.79;101467.38;5073834;28;20030;-43
2023/08/03 00:29:22;;;;;;;13.82;5.38;;;;;;;18.62;70.73;101474.06;5074103;28;20040;-44
2023/08/03 00:31:48;;;;;;;9.57;4.88;;;;;;;18.80;70.63;101464.09;5073546;28;20032;-44
2023/08/03 00:34:15;;;;;;;18.75;5.72;;;;;;;18.63;70.72;101464.06;5071723;28;20479;-43
2023/08/03 00:36:41;;;;;;;20.98;5.50;;;;;;;18.35;72.14;101468.44;5072915;28;20056;-44
2023/08/03 00:39:07;;;;;;;11.90;5.50;;;;;;;18.45;72.37;101462.38;5071575;28;20029;-44
2023/08/03 00:41:34;;;;;;;10.68;5.40;;;;;;;18.71;72.37;101459.09;5067195;28;20032;-43
2023/08/03 00:44:01;;;;;;;13.38;5.85;;;;;;;18.66;71.94;101464.41;5072955;28;20037;-47
2023/08/03 00:46:27;;;;;;;15.80;5.40;;;;;;;19.07;71.16;101470.53;5073524;28;20078;-44
2023/08/03 00:48:53;;;;;;;16.23;6.07;;;;;;;18.90;71.47;101459.69;5073522;28;20655;-43
2023/08/03 00:51:20;;;;;;;12.05;5.75;;;;;;;19.09;71.04;101456.69;5072048;28;20101;-46
2023/08/03 00:53:47;;;;;;;19.80;6.22;;;;;;;18.82;71.20;101461.97;5073333;28;20020;-45
2023/08/03 00:56:13;;;;;;;16.15;5.72;;;;;;;19.03;70.79;101457.69;5073073;28;20098;-42
2023/08/03 00:58:40;;;;;;;14.90;6.03;;;;;;;18.84;71.69;101455.25;5073293;28;20036;-44
2023/08/03 01:01:07;;;;;;;11.63;4.88;;;;;;;19.18;69.43;101442.47;5071246;28;20029;-53
2023/08/03 01:03:33;;;;;;;12.88;4.88;;;;;;;19.22;67.88;101440.09;5073436;28;20561;-45
2023/08/03 01:06:00;;;;;;;18.15;5.32;;;;;;;19.20;67.72;101439.50;5073338;28;20099;-56
2023/08/03 01:08:26;;;;;;;9.48;5.00;;;;;;;19.48;67.39;101443.97;5073244;28;20025;-44
2023/08/03 01:10:53;;;;;;;11.32;4.65;;;;;;;19.38;66.29;101444.69;5070167;28;20474;-44
2023/08/03 01:13:22;;;;;;;12.40;4.60;;;;;;;19.66;65.80;101441.00;5070875;28;20119;-48
2023/08/03 01:15:49;;;;;;;10.05;4.60;;;;;;;19.69;65.55;101440.50;5072922;28;20062;-47
2023/08/03 01:18:15;;;;;;;11.93;5.07;;;;;;;19.65;65.60;101436.63;5072870;28;20053;-47
2023/08/03 01:20:43;;;;;;;11.00;4.82;;;;;;;19.65;65.31;101436.63;5071462;28;20139;-47
2023/08/03 01:23:11;;;;;;;10.68;5.03;;;;;;;19.58;65.17;101444.13;5065702;28;20063;-44
2023/08/03 01:25:38;;;;;;;13.60;5.32;;;;;;;19.39;66.00;101440.06;5054089;28;20055;-44
2023/08/03 01:28:04;;;;;;;8.93;4.63;;;;;;;19.32;65.91;101444.84;5072816;28;20023;-44
2023/08/03 01:30:31;;;;;;;14.43;4.93;;;;;;;19.50;66.08;101422.84;5072383;28;20451;-43
2023/08/03 01:32:59;;;;;;;9.18;4.47;;;;;;;19.71;66.06;101432.94;5070960;28;20107;-44
2023/08/03 01:35:26;;;;;;;11.18;4.60;;;;;;;19.35;64.76;101422.63;5071514;28;20035;-45
2023/08/03 01:37:52;;;;;;;12.40;4.45;;;;;;;19.65;65.29;101417.63;5053038;28;20376;-46
2023/08/03 01:40:19;;;;;;;11.80;4.57;;;;;;;19.78;65.69;101436.28;5058005;28;20040;-44
2023/08/03 01:42:45;;;;;;;9.80;4.65;;;;;;;19.85;64.91;101429.81;5069267;28;20029;-43
2023/08/03 01:45:12;;;;;;;8.25;4.50;;;;;;;20.09;65.64;101427.66;5054687;28;20077;-44
2023/08/03 01:47:38;;;;;;;7.95;3.97;;;;;;;20.26;63.69;101423.75;5071176;28;20482;-45
2023/08/03 01:50:05;;;;;;;8.07;4.10;;;;;;;20.47;64.52;101434.88;5072738;28;20047;-43
2023/08/03 01:52:32;;;;;;;8.60;4.40;;;;;;;20.47;63.30;101429.44;5070824;28;20158;-42
2023/08/03 01:54:58;;;;;;;11.93;4.53;;;;;;;20.52;63.05;101429.47;5072470;28;20032;-41
2023/08/03 01:57:25;;;;;;;13.27;4.20;;;;;;;20.08;64.16;101423.28;5072740;28;20071;-47
2023/08/03 01:59:51;;;;;;;11.30;4.25;;;;;;;20.06;64.49;101422.75;5072488;28;20025;-46
2023/08/03 02:02:17;;;;;;;7.80;4.10;;;;;;;20.09;64.79;101425.75;5072248;28;20473;-44
2023/08/03 02:04:44;;;;;;;10.10;4.63;;;;;;;20.04;64.67;101412.09;5057456;28;20128;-45
2023/08/03 02:07:37;;;;;;;12.77;4.60;;;;;;;20.29;64.42;101423.25;5056017;28;20037;-45
2023/08/03 02:10:04;;;;;;;7.30;3.75;;;;;;;20.21;63.47;101418.28;5057800;28;20561;-48
2023/08/03 02:12:30;;;;;;;10.80;4.65;;;;;;;19.85;64.54;101419.78;5066231;28;20386;-46
2023/08/03 02:14:56;;;;;;;8.95;4.50;;;;;;;20.07;64.45;101417.03;5071055;28;20161;-45
2023/08/03 02:17:23;;;;;;;14.48;4.32;;;;;;;20.33;63.41;101412.69;5071287;28;20032;-45
2023/08/03 02:19:49;;;;;;;7.82;4.47;;;;;;;19.98;64.21;101422.09;5069653;28;20637;-43
2023/08/03 02:22:15;;;;;;;10.32;4.55;;;;;;;20.50;62.39;101415.34;5070818;28;20025;-44
2023/08/03 02:24:42;;;;;;;12.13;4.60;;;;;;;20.42;61.99;101421.19;5069647;28;20024;-43
2023/08/03 02:27:08;;;;;;;12.60;4.10;;;;;;;20.62;61.52;101420.59;5067626;28;20027;-44
2023/08/03 02:29:34;;;;;;;9.15;4.32;;;;;;;20.56;61.81;101423.28;5058370;28;20025;-46
2023/08/03 02:32:01;;;;;;;8.95;3.92;;;;;;;20.80;60.42;101417.47;5063611;28;20110;-45
2023/08/03 02:34:27;;;;;;;10.65;4.20;;;;;;;20.82;60.54;101424.31;5071883;28;20028;-42
2023/08/03 02:36:53;;;;;;;11.15;5.03;;;;;;;20.75;59.82;101422.88;5071430;28;20033;-44
2023/08/03 02:39:20;;;;;;;11.93;4.65;;;;;;;20.67;60.19;101423.38;5071514;28;20029;-43
2023/08/03 02:41:46;;;;;;;7.55;3.83;;;;;;;20.59;60.79;101424.63;5071158;28;20390;-43
2023/08/03 02:44:12;;;;;;;8.55;4.25;;;;;;;20.23;61.98;101431.63;5072157;28;20024;-43
2023/08/03 02:46:38;;;;;;;7.20;4.40;;;;;;;20.01;62.62;101426.22;5019941;28;20064;-43
2023/08/03 02:49:05;;;;;;;8.07;4.53;;;;;;;19.47;64.13;101432.28;5071839;28;20459;-43
2023/08/03 02:51:31;;;;;;;10.15;5.22;;;;;;;19.68;63.30;101421.75;5071481;28;20028;-42
2023/08/03 02:53:58;;;;;;;11.98;5.28;;;;;;;18.98;66.18;101426.69;5071646;28;20031;-45
2023/08/03 02:56:24;;;;;;;11.57;4.80;;;;;;;18.98;67.26;101423.16;5071788;28;20043;-44
2023/08/03 02:58:50;;;;;;;11.02;4.45;;;;;;;18.53;68.74;101420.50;5071681;28;20029;-44
2023/08/03 03:01:18;;;;;;;13.05;4.90;;;;;;;18.54;69.33;101422.94;5065693;28;20017;-42
2023/08/03 03:03:44;;;;;;;10.25;5.70;;;;;;;18.43;69.75;101427.41;5071151;28;20474;-42
2023/08/03 03:06:11;;;;;;;12.05;4.97;;;;;;;18.41;69.68;101429.50;5071632;28;20031;-43
2023/08/03 03:08:37;;;;;;;16.75;5.10;;;;;;;18.11;70.73;101429.78;5067932;28;20104;-44
2023/08/03 03:11:03;;;;;;;11.20;5.53;;;;;;;18.14;71.15;101433.88;5059291;28;20052;-44
2023/08/03 03:13:30;;;;;;;12.05;5.35;;;;;;;17.98;71.41;101434.66;5070760;28;20033;-42
2023/08/03 03:15:56;;;;;;;12.88;5.35;;;;;;;17.39;74.08;101415.81;5070598;28;20031;-43
2023/08/03 03:18:22;;;;;;;12.55;5.55;;;;;;;17.12;75.55;101412.75;5071331;28;20115;-46
2023/08/03 03:20:48;;;;;;;15.10;5.70;;;;;;;17.13;75.56;101415.22;5075063;28;20028;-42
2023/08/03 03:23:15;;;;;;;15.43;5.55;;;;;;;17.37;74.67;101428.72;5074986;28;20073;-43
2023/08/03 03:25:41;;;;;;;9.05;5.13;;;;;;;17.36;75.33;101432.50;5075158;28;20074;-43
2023/08/03 03:28:07;;;;;;;16.75;5.50;;;;;;;17.14;76.35;101416.88;5061375;28;20589;-45
2023/08/03 03:30:34;;;;;;;15.60;5.97;;;;;;;17.10;76.56;101434.66;5054736;28;20048;-46
2023/08/03 03:33:00;;;;;;;12.38;5.63;;;;;;;17.12;76.35;101427.09;5054921;28;20399;-45
2023/08/03 03:35:26;;;;;;;13.98;5.45;;;;;;;16.83;77.78;101426.16;5064951;28;20028;-43
2023/08/03 03:37:52;;;;;;;9.80;5.53;;;;;;;16.96;77.02;101433.22;5080284;23;20053;-45
2023/08/03 03:40:19;;;;;;;12.95;5.65;;;;;;;16.90;77.38;101428.75;5073809;28;20120;-43
2023/08/03 03:42:45;;;;;;;14.52;6.13;;;;;;;16.77;78.19;101431.66;5073051;28;20021;-44
2023/08/03 03:45:11;;;;;;;12.18;6.00;;;;;;;16.49;79.30;101433.09;5074737;28;20094;-43
2023/08/03 03:47:38;;;;;;;13.85;6.47;;;;;;;16.45;80.08;101422.97;5074648;28;20532;-43
2023/08/03 03:50:04;;;;;;;12.43;6.05;;;;;;;16.62;78.94;101438.28;5074670;28;20021;-44
2023/08/03 03:52:30;;;;;;;13.13;5.82;;;;;;;16.62;79.10;101438.28;5071497;28;20112;-45
2023/08/03 03:54:57;;;;;;;12.40;5.40;;;;;;;16.66;78.70;101435.97;5074015;28;20029;-43
2023/08/03 03:57:23;;;;;;;14.02;5.93;;;;;;;16.50;79.79;101436.63;5074595;28;20025;-43
2023/08/03 03:59:49;;;;;;;11.50;5.78;;;;;;;16.42;79.72;101437.75;5074455;28;20027;-43
2023/08/03 04:02:16;;;;;;;15.20;6.22;;;;;;;16.44;79.81;101432.97;5074303;28;20033;-43
2023/08/03 04:04:42;;;;;;;19.00;6.45;;;;;;;16.46;79.94;101438.97;5074061;28;20371;-43
2023/08/03 04:07:08;;;;;;;15.73;6.05;;;;;;;16.49;79.62;101438.50;5074861;28;20044;-43
2023/08/03 04:09:34;;;;;;;14.88;6.32;;;;;;;16.42;79.77;101445.03;5074371;28;20028;-44
2023/08/03 04:12:01;;;;;;;16.80;6.30;;;;;;;16.22;81.44;101443.47;5073589;28;20025;-44
2023/08/03 04:14:27;;;;;;;12.95;6.03;;;;;;;16.30;80.44;101448.53;5074019;28;20032;-45
2023/08/03 04:16:54;;;;;;;11.25;6.82;;;;;;;16.19;81.04;101453.88;5074312;28;20162;-43
2023/08/03 04:19:20;;;;;;;11.63;5.97;;;;;;;16.21;81.11;101451.78;5074089;28;20459;-43
2023/08/03 04:21:46;;;;;;;8.45;5.05;;;;;;;16.07;81.78;101460.06;5073786;28;20025;-43
2023/08/03 04:24:12;;;;;;;15.27;6.13;;;;;;;15.85;82.37;101461.56;5074381;28;20364;-44
2023/08/03 04:26:39;;;;;;;11.45;5.47;;;;;;;16.09;81.46;101470.63;5073926;28;20534;-44
2023/08/03 04:29:05;;;;;;;11.10;6.05;;;;;;;15.93;81.61;101468.53;5074022;28;20059;-43
2023/08/03 04:31:31;;;;;;;17.98;5.88;;;;;;;15.90;81.57;101471.72;5072790;28;20033;-43
2023/08/03 04:33:57;;;;;;;13.30;5.75;;;;;;;15.93;81.54;101474.75;5073540;28;20029;-44
2023/08/03 04:36:24;;;;;;;12.52;6.25;;;;;;;15.64;82.53;101475.53;5071444;28;20497;-45
2023/08/03 04:38:50;;;;;;;12.30;5.88;;;;;;;15.83;82.20;101469.91;5073611;28;20344;-43
2023/08/03 04:41:16;;;;;;;11.02;5.63;;;;;;;15.87;82.09;101469.44;5065113;28;20391;-43
2023/08/03 04:43:43;;;;;;;13.23;5.93;;;;;;;15.79;81.85;101467.88;5073962;28;20089;-44
2023/08/03 04:46:09;;;;;;;14.70;6.25;;;;;;;15.58;82.86;101469.09;5074037;28;20024;-44
2023/08/03 04:48:35;;;;;;;18.08;6.90;;;;;;;15.65;83.68;101475.28;5073974;28;20029;-43
2023/08/03 04:51:02;;;;;;;14.40;6.70;;;;;;;15.61;84.75;101484.03;5073203;28;20028;-43
2023/08/03 04:53:28;;;;;;;15.20;6.60;;;;;;;15.47;85.85;101480.63;5073890;28;20049;-43
2023/08/03 04:55:54;;;;;;;12.70;7.18;;;;;;;15.20;87.99;101488.97;5074006;28;20106;-43
2023/08/03 04:58:20;;;;;;;14.25;7.07;;;;;;;14.99;89.24;101487.50;5073878;28;20064;-42
2023/08/03 05:00:46;;;;;;;22.02;7.78;;;;;;;15.08;88.54;101490.75;5073392;28;20486;-43
2023/08/03 05:03:13;;;;;;;22.02;7.00;;;;;;;15.15;88.30;101485.28;5073174;28;20064;-43
2023/08/03 05:05:39;;;;;;;15.38;6.55;;;;;;;15.21;88.18;101495.19;5073546;28;20025;-45
2023/08/03 05:08:05;;;;;;;15.95;6.68;;;;;;;14.94;89.09;101494.59;5055611;28;20060;-42
2023/08/03 05:10:31;;;;;;;14.10;7.13;;;;;;;14.84;89.92;101495.06;5073282;28;20039;-45
2023/08/03 05:12:58;;;;;;;14.25;6.18;;;;;;;14.80;90.06;101488.47;5073104;28;20028;-45
2023/08/03 05:15:24;;;;;;;20.33;7.65;;;;;;;14.73;90.30;101490.38;5071648;28;20028;-44
2023/08/03 05:17:50;;;;;;;18.17;7.50;;;;;;;14.84;89.59;101496.94;5063210;28;20029;-43
2023/08/03 05:20:16;;;;;;;15.10;7.07;;;;;;;14.77;90.56;101505.91;5052437;28;20041;-44
2023/08/03 05:22:43;;;;;;;16.00;7.43;;;;;;;14.80;90.68;101515.41;5062381;28;20032;-45
2023/08/03 05:25:09;;;;;;;15.40;6.78;;;;;;;14.73;90.74;101503.84;5070802;28;20107;-42
2023/08/03 05:27:36;;;;;;;19.00;7.53;;;;;;;14.61;91.05;101502.91;5072773;28;20028;-42
2023/08/03 05:30:03;;;;;;;14.50;6.57;;;;;;;14.61;91.19;101511.00;5072490;28;20020;-42
2023/08/03 05:32:29;;;;;;;17.73;6.63;;;;;;;14.65;90.73;101514.88;5072233;28;20107;-43
2023/08/03 05:34:55;;;;;;;19.60;6.70;;;;;;;14.60;90.72;101517.41;5072336;28;20675;-43
2023/08/03 05:37:21;;;;;;;19.70;7.57;;;;;;;14.59;90.96;101513.06;5071671;28;20079;-43
2023/08/03 05:39:48;;;;;;;17.27;6.88;;;;;;;14.56;91.73;101510.81;5072250;28;20056;-42
2023/08/03 05:42:17;;;;;;;18.27;6.85;;;;;;;14.61;91.37;101508.28;5071299;28;20017;-45
2023/08/03 05:44:43;;;;;;;22.58;7.80;;;;;;;14.53;91.54;101507.47;5072509;28;20016;-42
2023/08/03 05:47:11;;;;;;;17.15;7.03;;;;;;;14.62;91.00;101501.84;5072270;28;20470;-45
2023/08/03 05:49:38;;;;;;;14.23;7.18;;;;;;;14.52;91.36;101500.44;5068430;28;20036;-42
2023/08/03 05:52:05;;;;;;;15.43;6.47;;;;;;;14.47;91.38;101494.06;5053502;28;20316;-42
2023/08/03 05:54:31;;;;;;;12.63;5.80;;;;;;;14.38;92.20;101517.72;5052659;28;20032;-43
2023/08/03 05:56:57;;;;;;;17.13;6.57;;;;;;;14.20;93.61;101517.56;5052296;28;20541;-43
2023/08/03 05:59:24;;;;;;;20.05;6.80;;;;;;;14.25;93.38;101513.19;5057083;28;20035;-43
2023/08/03 06:01:51;;;;;;;18.80;7.10;;;;;;;14.30;93.37;101500.94;5071354;28;20032;-42
2023/08/03 06:04:18;;;;;;;24.48;7.53;;;;;;;14.15;93.62;101506.59;5071889;28;20074;-42
2023/08/03 06:06:46;;;;;;;13.95;5.63;;;;;;;14.26;93.42;101498.69;5072171;28;20028;-42
2023/08/03 06:09:13;;;;;;;18.65;6.32;;;;;;;14.21;93.73;101508.44;5069991;28;20028;-43
2023/08/03 06:11:41;;;;;;;19.80;7.15;;;;;;;13.91;95.61;101508.97;5070673;28;20016;-42
2023/08/03 06:14:18;;;;;;;12.65;6.03;;;;;;;14.06;94.98;101516.78;5109429;27;20404;-42
2023/08/03 06:16:44;;;;;;;14.80;5.88;;;;;;;14.03;94.68;101511.81;5109378;28;20035;-41
2023/08/03 06:19:11;;;;;;;17.92;5.70;;;;;;;14.07;94.13;101510.38;5109415;28;20027;-42
2023/08/03 06:21:37;;;;;;;12.70;5.70;;;;;;;13.99;94.29;101508.75;5108924;28;20032;-43
2023/08/03 06:24:03;;;;;;;14.65;5.63;;;;;;;13.98;94.14;101507.06;5109132;28;20547;-44
2023/08/03 06:26:36;;;;;;;14.80;5.88;;;;;;;13.85;94.83;101512.50;5109155;28;20408;-44
2023/08/03 06:29:05;;;;;;;13.48;5.13;;;;;;;13.94;94.55;101507.72;5109462;28;20032;-41
2023/08/03 06:31:41;;;;;;;11.05;5.72;;;;;;;13.95;94.57;101504.00;5108457;28;20087;-44
2023/08/03 06:34:12;;;;;;;11.68;6.00;;;;;;;13.78;95.48;101509.00;5108738;28;20042;-45
2023/08/03 06:36:40;;;;;;;14.05;5.10;;;;;;;13.85;94.93;101507.13;5109008;28;20093;-41
2023/08/03 06:39:07;;;;;;;13.48;5.40;;;;;;;13.80;95.19;101503.41;5094801;28;20044;-42
2023/08/03 06:41:33;;;;;;;11.10;5.43;;;;;;;13.73;95.82;101514.19;5088572;28;20110;-42
2023/08/03 06:44:01;;;;;;;11.10;5.35;;;;;;;13.64;96.17;101504.69;5088477;28;20100;-41
2023/08/03 06:46:27;;;;;;;9.35;5.22;;;;;;;13.67;95.57;101505.09;5088914;28;20496;-42
2023/08/03 06:48:54;;;;;;;11.38;5.00;;;;;;;13.72;94.92;101516.06;5088539;28;20114;-41
2023/08/03 06:51:21;;;;;;;8.70;4.80;;;;;;;13.84;94.31;101510.03;5088410;28;20097;-42
2023/08/03 06:53:49;;;;;;;9.98;5.00;;;;;;;13.77;94.21;101523.50;5088416;28;20055;-45
2023/08/03 06:56:15;;;;;;;17.10;5.47;;;;;;;13.69;94.31;101512.97;5088262;28;20020;-45
2023/08/03 06:58:42;;;;;;;10.73;4.97;;;;;;;13.69;94.47;101503.03;5088407;28;20020;-42
2023/08/03 07:01:08;;;;;;;7.45;4.30;;;;;;;13.74;94.11;101505.09;5087812;28;20477;-42
2023/08/03 07:03:35;;;;;;;9.73;4.50;;;;;;;13.75;94.13;101517.50;5075620;28;20017;-44
2023/08/03 07:06:03;;;;;;;9.73;4.40;;;;;;;13.69;94.50;101519.16;5067559;28;20055;-41
2023/08/03 07:08:29;;;;;;;11.32;5.05;;;;;;;13.69;94.43;101512.97;5067818;28;20413;-46
2023/08/03 07:10:55;;;;;;;9.93;4.50;;;;;;;13.64;95.11;101528.91;5084045;28;20021;-43
2023/08/03 07:13:21;;;;;;;11.77;5.15;;;;;;;13.72;95.22;101526.00;5073950;28;20045;-43
2023/08/03 07:15:48;;;;;;;13.30;4.93;;;;;;;13.63;96.13;101524.56;5072686;28;20024;-41
2023/08/03 07:18:14;;;;;;;13.35;4.90;;;;;;;13.72;95.75;101528.69;5087917;28;20016;-42
2023/08/03 07:20:40;;;;;;;10.93;5.03;;;;;;;13.77;95.20;101510.06;5087487;28;20024;-43
2023/08/03 07:23:07;;;;;;;10.05;4.72;;;;;;;13.76;95.08;101527.22;5087721;28;20056;-43
2023/08/03 07:25:34;;;;;;;10.18;4.85;;;;;;;13.73;95.11;101531.16;5074611;28;20067;-44
2023/08/03 07:28:00;;;;;;;6.60;3.95;;;;;;;13.81;94.39;101522.03;5074156;28;20046;-46
2023/08/03 07:30:27;;;;;;;9.15;4.78;;;;;;;13.83;94.16;101530.75;5074053;28;20775;-44
2023/08/03 07:32:53;;;;;;;10.88;4.93;;;;;;;13.77;94.56;101522.66;5070278;28;20029;-48
2023/08/03 07:35:19;;;;;;;7.65;4.65;;;;;;;13.72;94.84;101517.94;5074349;28;20029;-48
2023/08/03 07:37:45;;;;;;;9.35;4.78;;;;;;;13.59;95.57;101528.69;5073865;28;20028;-48
2023/08/03 07:40:12;;;;;;;9.98;4.68;;;;;;;13.61;95.64;101527.47;5059969;28;20098;-48
2023/08/03 07:42:38;;;;;;;13.70;5.47;;;;;;;13.63;95.60;101535.31;5064091;28;20039;-47
2023/08/03 07:45:05;;;;;;;13.23;5.20;;;;;;;13.65;95.13;101528.69;5091504;28;20469;-48
2023/08/03 07:47:31;;;;;;;8.32;4.72;;;;;;;13.63;95.49;101529.94;5094452;28;20089;-48
2023/08/03 07:49:58;;;;;;;12.55;5.22;;;;;;;13.62;95.31;101529.13;5087414;28;20056;-47
2023/08/03 07:52:24;;;;;;;15.90;5.70;;;;;;;13.53;95.50;101522.28;5073685;28;20021;-48
2023/08/03 07:54:51;;;;;;;10.32;5.03;;;;;;;13.61;95.45;101532.03;5073829;28;20024;-48
2023/08/03 07:57:18;;;;;;;7.75;4.93;;;;;;;13.54;96.02;101532.00;5073699;28;20025;-48
2023/08/03 07:59:53;;;;;;;9.70;4.97;;;;;;;13.59;95.93;101526.81;5073754;28;20024;-48
2023/08/03 08:02:19;;;;;;;9.13;4.90;;;;;;;13.63;95.39;101529.94;5062770;28;20082;-48
2023/08/03 08:04:50;;;;;;;9.25;4.72;;;;;;;13.54;95.84;101537.38;5053626;28;20036;-48
2023/08/03 08:07:17;;;;;;;9.68;5.18;;;;;;;13.60;95.75;101530.34;5062673;28;20024;-48
2023/08/03 08:09:43;;;;;;;11.00;4.97;;;;;;;13.57;95.83;101530.78;5066559;28;20204;-48
2023/08/03 08:12:09;;;;;;;8.20;5.03;;;;;;;13.59;95.62;101531.38;5052961;28;20049;-48
2023/08/03 08:14:36;;;;;;;13.02;5.18;;;;;;;13.55;95.92;101533.69;5053447;28;20021;-48
2023/08/03 08:17:02;;;;;;;8.45;4.85;;;;;;;13.58;96.23;101535.13;5053385;28;20028;-48
2023/08/03 08:19:29;;;;;;;13.23;5.05;;;;;;;13.47;96.96;101531.19;5053421;28;20060;-48
2023/08/03 08:21:56;;;;;;;9.00;5.38;;;;;;;13.48;97.21;101530.16;5052869;28;20021;-48
2023/08/03 08:24:22;;;;;;;11.40;5.80;;;;;;;13.57;95.94;101530.78;5063037;28;20039;-47
2023/08/03 08:26:48;;;;;;;11.50;5.63;;;;;;;13.60;95.50;101531.19;5073056;28;20021;-48
2023/08/03 08:29:15;;;;;;;12.00;5.57;;;;;;;13.46;96.28;101521.47;5073345;28;20095;-43
2023/08/03 08:31:41;;;;;;;10.02;5.43;;;;;;;13.53;96.29;101526.84;5070913;28;20104;-44
2023/08/03 08:34:07;;;;;;;11.52;5.25;;;;;;;13.57;96.23;101531.59;5067952;28;20108;-42
2023/08/03 08:36:33;;;;;;;10.07;5.03;;;;;;;13.60;95.70;101528.50;5071859;28;20036;-42
2023/08/03 08:38:59;;;;;;;12.27;5.05;;;;;;;13.58;96.02;101517.13;5072790;28;20024;-41
2023/08/03 08:41:26;;;;;;;10.80;4.72;;;;;;;13.49;96.04;101521.03;5072658;28;20040;-45
2023/08/03 08:43:52;;;;;;;11.02;4.80;;;;;;;13.40;97.58;101525.00;5072701;28;20032;-42
2023/08/03 08:46:18;;;;;;;15.70;5.22;;;;;;;13.27;98.22;101515.09;5072723;28;20377;-42
2023/08/03 08:48:44;;;;;;;8.55;4.30;;;;;;;13.33;97.20;101519.63;5072600;28;20127;-43
2023/08/03 08:51:13;;;;;;;7.43;4.60;;;;;;;13.42;96.88;101517.53;5072308;28;20027;-41
2023/08/03 08:53:39;;;;;;;9.80;4.65;;;;;;;13.31;97.24;101518.16;5072445;28;20113;-40
2023/08/03 08:56:06;;;;;;;11.65;4.82;;;;;;;13.24;97.64;101525.41;5072783;28;20498;-40
2023/08/03 08:58:32;;;;;;;6.97;4.50;;;;;;;13.29;97.45;101528.31;5072481;28;20365;-40
2023/08/03 09:01:05;;;;;;;13.52;5.20;;;;;;;13.26;98.22;101526.03;5071404;28;20036;-40
2023/08/03 09:03:56;;;;;;;10.88;4.07;;;;;;;13.27;98.12;101520.47;5060861;28;20052;-41
2023/08/03 09:06:22;;;;;;;11.00;4.95;;;;;;;13.30;98.18;101525.41;5052536;28;20032;-41
2023/08/03 09:08:54;;;;;;;9.13;4.38;;;;;;;13.30;98.37;101517.34;5053980;28;20040;-41
2023/08/03 09:11:38;;;;;;;9.88;4.47;;;;;;;13.42;98.52;101518.38;5053023;28;20024;-41
2023/08/03 09:14:06;;;;;;;8.55;3.90;;;;;;;13.46;98.56;101514.22;5070471;28;20159;-42
2023/08/03 09:16:33;;;;;;;9.02;4.35;;;;;;;13.23;98.53;101508.47;5074790;28;20020;-42
2023/08/03 09:18:59;;;;;;;7.55;3.95;;;;;;;13.28;98.42;101514.03;5066962;28;20102;-42
2023/08/03 09:21:26;;;;;;;10.63;4.50;;;;;;;13.20;98.94;101511.53;5071881;28;20032;-44
2023/08/03 09:23:54;;;;;;;9.48;3.70;;;;;;;13.28;98.79;101514.03;5071086;28;20064;-43
2023/08/03 09:26:24;;;;;;;7.00;4.10;;;;;;;13.32;99.38;101517.13;5068324;28;20025;-41
2023/08/03 09:28:51;;;;;;;6.88;3.58;;;;;;;13.39;99.35;101518.78;5071209;28;20029;-42
2023/08/03 09:31:25;;;;;;;7.43;3.90;;;;;;;13.26;99.56;101517.97;5083554;28;20044;-41
2023/08/03 09:33:59;;;;;;;9.52;4.30;;;;;;;13.27;99.54;101509.72;5070435;28;20082;-41
2023/08/03 09:36:27;;;;;;;6.75;4.43;;;;;;;13.36;99.51;101516.50;5077196;28;20024;-41
2023/08/03 09:39:12;;;;;;;9.57;4.30;;;;;;;13.31;99.69;101519.00;5072028;28;20044;-42
2023/08/03 09:41:39;;;;;;;7.60;3.88;;;;;;;13.37;98.94;101520.84;5072298;28;20237;-45
2023/08/03 09:44:07;;;;;;;7.93;3.60;;;;;;;13.31;99.68;101510.94;5071985;28;20385;-42
2023/08/03 09:46:34;;;;;;;8.55;3.90;;;;;;;13.33;99.78;101511.56;5071916;28;20051;-42
2023/08/03 09:49:01;;;;;;;12.35;4.75;;;;;;;13.24;99.87;101507.44;5076564;28;20055;-41
2023/08/03 09:51:31;;;;;;;6.65;4.07;;;;;;;13.37;98.99;101510.09;5071335;28;20020;-43
2023/08/03 09:54:13;;;;;;;8.10;3.72;;;;;;;13.32;98.65;101504.50;5070839;28;20040;-42
2023/08/03 09:56:52;;;;;;;11.77;4.70;;;;;;;13.34;99.28;101515.09;5071816;28;20119;-43
2023/08/03 09:59:23;;;;;;;10.65;3.58;;;;;;;13.39;99.36;101512.59;5071941;28;20017;-41
2023/08/03 10:01:56;;;;;;;5.32;3.75;;;;;;;13.29;99.49;101507.63;5070688;28;20527;-41
2023/08/03 10:04:25;;;;;;;5.72;3.45;;;;;;;13.33;99.55;101503.50;5058720;28;20028;-45
2023/08/03 10:07:00;;;;;;;6.95;3.45;;;;;;;13.37;98.94;101515.47;5066622;28;20024;-43
2023/08/03 10:09:34;;;;;;;8.07;3.05;;;;;;;13.32;98.80;101506.38;5069593;28;20033;-41
2023/08/03 10:12:06;;;;;;;9.65;2.88;;;;;;;13.33;99.13;101505.38;5069833;28;20536;-41
2023/08/03 10:14:36;;;;;;;4.68;2.63;;;;;;;13.26;98.50;101502.66;5070296;28;20031;-41
2023/08/03 10:17:04;;;;;;;7.03;3.72;;;;;;;13.28;99.14;101505.97;5070171;28;20052;-43
2023/08/03 10:19:32;;;;;;;6.68;2.95;;;;;;;13.34;98.68;101505.16;5070494;28;20036;-41
2023/08/03 10:21:58;;;;;;;4.65;2.75;;;;;;;13.29;98.94;101507.63;5069489;28;20020;-42
2023/08/03 10:24:24;;;;;;;5.28;2.80;;;;;;;13.25;98.82;101501.00;5069379;28;20097;-42
2023/08/03 10:26:56;;;;;;;7.30;3.28;;;;;;;13.24;99.49;101499.34;5071388;28;20017;-42
2023/08/03 10:29:56;;;;;;;5.68;2.88;;;;;;;13.28;99.41;101500.59;5070405;28;20036;-42
2023/08/03 10:32:26;;;;;;;6.63;2.58;;;;;;;13.14;99.47;101496.22;5031399;28;20040;-43
2023/08/03 10:34:56;;;;;;;5.65;3.17;;;;;;;13.15;99.63;101498.69;5069098;28;20168;-43
2023/08/03 10:37:22;;;;;;;5.10;2.85;;;;;;;13.26;99.38;101496.44;5071520;28;20016;-42
2023/08/03 10:39:54;;;;;;;6.10;2.92;;;;;;;13.34;98.58;101505.16;5070714;28;20016;-43
2023/08/03 10:42:24;;;;;;;5.32;3.10;;;;;;;13.39;98.45;101499.16;5071287;28;20024;-42
2023/08/03 10:44:51;;;;;;;5.30;2.90;;;;;;;13.41;98.37;101505.13;5071049;28;20037;-44
2023/08/03 10:47:29;;;;;;;5.20;2.80;;;;;;;13.48;98.39;101500.56;5071290;28;20488;-42
2023/08/03 10:49:57;;;;;;;4.85;2.78;;;;;;;13.53;98.18;101511.53;5068134;28;20045;-42
2023/08/03 10:52:30;;;;;;;3.17;2.30;;;;;;;13.52;98.11;101501.81;5069007;28;20480;-41
2023/08/03 10:54:58;;;;;;;5.32;2.60;;;;;;;13.61;97.26;101502.44;5070019;28;20036;-43
2023/08/03 10:57:29;;;;;;;5.15;2.67;;;;;;;13.57;96.25;101498.50;5069053;28;20102;-42
2023/08/03 11:00:01;;;;;;;4.03;2.75;;;;;;;13.44;96.65;101488.59;5071881;28;20036;-43
2023/08/03 11:02:33;;;;;;;3.60;2.67;;;;;;;13.51;95.65;101493.97;5073669;28;20481;-41
2023/08/03 11:05:02;;;;;;;5.72;3.38;;;;;;;13.32;96.57;101496.44;5074387;28;20508;-42
2023/08/03 11:07:57;;;;;;;6.35;3.30;;;;;;;13.32;96.96;101498.31;5073431;28;20107;-42
2023/08/03 11:10:23;;;;;;;6.57;3.55;;;;;;;13.25;97.02;101501.00;5054607;28;20048;-41
2023/08/03 11:12:52;;;;;;;3.80;2.85;;;;;;;13.32;96.94;101507.19;5073131;28;20097;-44
2023/08/03 11:15:18;;;;;;;3.95;2.97;;;;;;;13.31;97.06;101502.03;5074590;28;20086;-42
2023/08/03 11:17:50;;;;;;;6.93;3.15;;;;;;;13.44;96.53;101502.88;5073594;28;20552;-42
2023/08/03 11:20:17;;;;;;;4.95;2.90;;;;;;;13.37;96.87;101499.34;5071713;28;20174;-42